Sinsuzuka — JD4131 — position and weather

sailwx.info

Track history (hours):
 
Tides and Currents Weather Stations Pressure Air Temp Water Temp Dewpoint Dewpoint Depression Visibility Wind Speed Wind Dir Waves Ship Positions

Sinsuzuka

Last reported at 2017-Nov-18 07:19 UTC. Time now 2017-Nov-20 23:15 UTC.
Position N 34°39' E 135°19'.

Length 49 m; draft 3.5 m.

Type: Tanker. MMSI: 431009017.

Date/timePositionNaut miles runAvg speedWind from/ knotsBaromVisibWave heightAir tempDewpointWater temp
2017-Nov-18 07:19N 34°39' E 135°19'310.2
2017-Nov-18 07:00N 34°38' E 135°15'511.0
2017-Nov-18 06:30N 34°36' E 135°09'612.1
2017-Nov-18 06:00N 34°37' E 135°02'  
2017-Nov-13 02:00N 34°42' E 135°24'3 0.1
2017-Nov-11 09:23N 34°40' E 135°21'410.6
2017-Nov-11 09:00N 34°38' E 135°17'510.7
2017-Nov-11 08:30N 34°37' E 135°11'610.8
2017-Nov-11 07:59N 34°36' E 135°04'3 0.1
2017-Nov-09 04:02N 34°37' E 135°01'014.9
2017-Nov-09 04:00N 34°37' E 135°02'612.0
2017-Nov-09 03:30N 34°37' E 135°09'611.9
2017-Nov-09 03:00N 34°38' E 135°16'611.8
2017-Nov-09 02:30N 34°41' E 135°22'  
Track history (hours):
 
Tides and Currents Weather Stations Pressure Air Temp Water Temp Dewpoint Dewpoint Depression Visibility Wind Speed Wind Dir Waves Ship Positions

Sinsuzuka

Last reported at 2017-Nov-18 07:19 UTC. Time now 2017-Nov-20 23:15 UTC.
Position N 34°39' E 135°19'.

Length 49 m; draft 3.5 m.

Type: Tanker. MMSI: 431009017.

Date/timePositionNaut miles runAvg speedWind from/ knotsBaromVisibWave heightAir tempDewpointWater temp
2017-Nov-18 07:19N 34°39' E 135°19'310.2
2017-Nov-18 07:00N 34°38' E 135°15'511.0
2017-Nov-18 06:30N 34°36' E 135°09'612.1
2017-Nov-18 06:00N 34°37' E 135°02'  
2017-Nov-13 02:00N 34°42' E 135°24'3 0.1
2017-Nov-11 09:23N 34°40' E 135°21'410.6
2017-Nov-11 09:00N 34°38' E 135°17'510.7
2017-Nov-11 08:30N 34°37' E 135°11'610.8
2017-Nov-11 07:59N 34°36' E 135°04'3 0.1
2017-Nov-09 04:02N 34°37' E 135°01'014.9
2017-Nov-09 04:00N 34°37' E 135°02'612.0
2017-Nov-09 03:30N 34°37' E 135°09'611.9
2017-Nov-09 03:00N 34°38' E 135°16'611.8
2017-Nov-09 02:30N 34°41' E 135°22'  

Dump ship's entire track history